sensor_id;sensor_type;location;lat;lon;timestamp;P1;durP1;ratioP1;P2;durP2;ratioP2
52838;SDS011;39219;53.678;9.856;2024-03-23T00:56:16;24.52;;;5.00;;
52838;SDS011;39219;53.678;9.856;2024-03-23T00:58:43;24.23;;;5.00;;
52838;SDS011;39219;53.678;9.856;2024-03-23T01:01:08;24.00;;;4.45;;
52838;SDS011;39219;53.678;9.856;2024-03-23T01:03:35;21.55;;;4.78;;
52838;SDS011;39219;53.678;9.856;2024-03-23T01:06:02;25.45;;;4.55;;
52838;SDS011;39219;53.678;9.856;2024-03-23T01:08:29;26.38;;;4.72;;
52838;SDS011;39219;53.678;9.856;2024-03-23T01:10:56;21.15;;;4.18;;
52838;SDS011;39219;53.678;9.856;2024-03-23T01:13:24;23.77;;;4.57;;
52838;SDS011;39219;53.678;9.856;2024-03-23T01:15:49;25.05;;;4.68;;
52838;SDS011;39219;53.678;9.856;2024-03-23T01:18:16;27.60;;;4.68;;
52838;SDS011;39219;53.678;9.856;2024-03-23T01:20:42;22.13;;;4.68;;
52838;SDS011;39219;53.678;9.856;2024-03-23T01:23:09;20.05;;;4.97;;
52838;SDS011;39219;53.678;9.856;2024-03-23T01:25:35;29.70;;;5.18;;
52838;SDS011;39219;53.678;9.856;2024-03-23T01:28:03;23.48;;;4.13;;
52838;SDS011;39219;53.678;9.856;2024-03-23T01:30:28;26.83;;;4.63;;
52838;SDS011;39219;53.678;9.856;2024-03-23T01:32:55;21.17;;;4.55;;
52838;SDS011;39219;53.678;9.856;2024-03-23T01:35:21;20.88;;;4.88;;
52838;SDS011;39219;53.678;9.856;2024-03-23T01:37:47;25.73;;;5.18;;
52838;SDS011;39219;53.678;9.856;2024-03-23T01:40:13;19.50;;;4.88;;
52838;SDS011;39219;53.678;9.856;2024-03-23T01:42:39;21.80;;;4.75;;
52838;SDS011;39219;53.678;9.856;2024-03-23T01:45:07;25.48;;;4.93;;
52838;SDS011;39219;53.678;9.856;2024-03-23T01:47:34;23.20;;;5.00;;
52838;SDS011;39219;53.678;9.856;2024-03-23T01:50:00;24.25;;;4.70;;
52838;SDS011;39219;53.678;9.856;2024-03-23T01:52:26;15.98;;;4.35;;
52838;SDS011;39219;53.678;9.856;2024-03-23T01:54:52;23.92;;;4.65;;
52838;SDS011;39219;53.678;9.856;2024-03-23T01:57:19;25.75;;;4.85;;
52838;SDS011;39219;53.678;9.856;2024-03-23T01:59:45;27.02;;;5.30;;
52838;SDS011;39219;53.678;9.856;2024-03-23T02:02:13;22.00;;;5.30;;
52838;SDS011;39219;53.678;9.856;2024-03-23T02:04:39;26.63;;;5.53;;
52838;SDS011;39219;53.678;9.856;2024-03-23T02:07:05;23.80;;;5.05;;
52838;SDS011;39219;53.678;9.856;2024-03-23T02:09:32;21.70;;;4.82;;
52838;SDS011;39219;53.678;9.856;2024-03-23T02:11:59;25.08;;;5.38;;
52838;SDS011;39219;53.678;9.856;2024-03-23T02:14:27;27.67;;;4.97;;
52838;SDS011;39219;53.678;9.856;2024-03-23T02:16:53;23.45;;;5.50;;
52838;SDS011;39219;53.678;9.856;2024-03-23T02:19:20;26.88;;;4.93;;
52838;SDS011;39219;53.678;9.856;2024-03-23T02:21:46;26.88;;;5.45;;
52838;SDS011;39219;53.678;9.856;2024-03-23T02:24:13;27.27;;;5.20;;
52838;SDS011;39219;53.678;9.856;2024-03-23T02:26:40;28.48;;;5.32;;
52838;SDS011;39219;53.678;9.856;2024-03-23T02:29:05;23.88;;;4.55;;
52838;SDS011;39219;53.678;9.856;2024-03-23T02:31:33;24.73;;;5.32;;
52838;SDS011;39219;53.678;9.856;2024-03-23T02:33:59;27.52;;;5.40;;
52838;SDS011;39219;53.678;9.856;2024-03-23T02:36:25;28.75;;;5.03;;
52838;SDS011;39219;53.678;9.856;2024-03-23T02:38:51;21.05;;;5.30;;
52838;SDS011;39219;53.678;9.856;2024-03-23T02:41:19;25.00;;;4.53;;
52838;SDS011;39219;53.678;9.856;2024-03-23T02:43:48;20.38;;;5.15;;
52838;SDS011;39219;53.678;9.856;2024-03-23T02:46:15;25.73;;;5.10;;
52838;SDS011;39219;53.678;9.856;2024-03-23T02:48:40;24.13;;;4.90;;
52838;SDS011;39219;53.678;9.856;2024-03-23T02:51:07;26.23;;;5.07;;
52838;SDS011;39219;53.678;9.856;2024-03-23T02:53:32;21.92;;;4.72;;
52838;SDS011;39219;53.678;9.856;2024-03-23T02:55:58;25.42;;;5.40;;
52838;SDS011;39219;53.678;9.856;2024-03-23T02:58:25;22.00;;;5.03;;
52838;SDS011;39219;53.678;9.856;2024-03-23T03:00:52;27.50;;;5.47;;
52838;SDS011;39219;53.678;9.856;2024-03-23T03:03:17;27.27;;;5.25;;
52838;SDS011;39219;53.678;9.856;2024-03-23T03:05:44;22.33;;;5.18;;
52838;SDS011;39219;53.678;9.856;2024-03-23T03:08:09;24.30;;;5.43;;
52838;SDS011;39219;53.678;9.856;2024-03-23T03:10:36;25.30;;;5.15;;
52838;SDS011;39219;53.678;9.856;2024-03-23T03:13:01;28.60;;;4.90;;
52838;SDS011;39219;53.678;9.856;2024-03-23T03:15:29;27.65;;;4.78;;
52838;SDS011;39219;53.678;9.856;2024-03-23T03:17:54;28.58;;;5.45;;
52838;SDS011;39219;53.678;9.856;2024-03-23T03:20:21;21.63;;;5.05;;
52838;SDS011;39219;53.678;9.856;2024-03-23T03:22:48;21.90;;;4.70;;
52838;SDS011;39219;53.678;9.856;2024-03-23T03:25:15;24.73;;;4.88;;
52838;SDS011;39219;53.678;9.856;2024-03-23T03:27:40;27.88;;;5.60;;
52838;SDS011;39219;53.678;9.856;2024-03-23T03:30:07;25.77;;;4.88;;
52838;SDS011;39219;53.678;9.856;2024-03-23T03:32:35;20.10;;;4.95;;
52838;SDS011;39219;53.678;9.856;2024-03-23T03:35:01;25.83;;;5.18;;
52838;SDS011;39219;53.678;9.856;2024-03-23T03:37:27;27.65;;;5.53;;
52838;SDS011;39219;53.678;9.856;2024-03-23T03:39:53;20.73;;;4.95;;
52838;SDS011;39219;53.678;9.856;2024-03-23T03:42:19;29.52;;;5.70;;
52838;SDS011;39219;53.678;9.856;2024-03-23T03:44:45;23.08;;;4.82;;
52838;SDS011;39219;53.678;9.856;2024-03-23T03:47:11;22.10;;;4.80;;
52838;SDS011;39219;53.678;9.856;2024-03-23T03:49:39;26.83;;;5.32;;
52838;SDS011;39219;53.678;9.856;2024-03-23T03:52:04;26.50;;;4.82;;
52838;SDS011;39219;53.678;9.856;2024-03-23T03:54:31;25.30;;;4.93;;
52838;SDS011;39219;53.678;9.856;2024-03-23T03:56:56;24.73;;;5.32;;
52838;SDS011;39219;53.678;9.856;2024-03-23T03:59:23;20.17;;;4.97;;
52838;SDS011;39219;53.678;9.856;2024-03-23T04:01:48;23.05;;;4.80;;
52838;SDS011;39219;53.678;9.856;2024-03-23T04:04:15;24.83;;;4.78;;
52838;SDS011;39219;53.678;9.856;2024-03-23T04:06:42;21.15;;;4.95;;
52838;SDS011;39219;53.678;9.856;2024-03-23T04:09:09;26.70;;;5.28;;
52838;SDS011;39219;53.678;9.856;2024-03-23T04:11:35;23.75;;;4.88;;
52838;SDS011;39219;53.678;9.856;2024-03-23T04:14:01;28.48;;;5.82;;
52838;SDS011;39219;53.678;9.856;2024-03-23T04:16:27;27.38;;;5.47;;
52838;SDS011;39219;53.678;9.856;2024-03-23T04:18:54;26.25;;;4.75;;
52838;SDS011;39219;53.678;9.856;2024-03-23T04:21:19;28.15;;;5.03;;
52838;SDS011;39219;53.678;9.856;2024-03-23T04:23:47;26.88;;;4.75;;
52838;SDS011;39219;53.678;9.856;2024-03-23T04:26:13;27.73;;;5.50;;
52838;SDS011;39219;53.678;9.856;2024-03-23T04:28:40;23.73;;;4.90;;
52838;SDS011;39219;53.678;9.856;2024-03-23T04:31:05;21.67;;;4.75;;
52838;SDS011;39219;53.678;9.856;2024-03-23T04:33:32;23.38;;;5.47;;
52838;SDS011;39219;53.678;9.856;2024-03-23T04:35:57;20.98;;;5.07;;
52838;SDS011;39219;53.678;9.856;2024-03-23T04:38:24;26.05;;;4.78;;
52838;SDS011;39219;53.678;9.856;2024-03-23T04:40:55;28.25;;;5.40;;
52838;SDS011;39219;53.678;9.856;2024-03-23T04:43:21;30.92;;;5.35;;
52838;SDS011;39219;53.678;9.856;2024-03-23T04:45:48;20.58;;;4.85;;
52838;SDS011;39219;53.678;9.856;2024-03-23T04:48:13;23.90;;;5.20;;
52838;SDS011;39219;53.678;9.856;2024-03-23T04:50:40;25.02;;;5.13;;
52838;SDS011;39219;53.678;9.856;2024-03-23T04:53:06;25.25;;;5.22;;
52838;SDS011;39219;53.678;9.856;2024-03-23T04:55:33;21.20;;;4.85;;
52838;SDS011;39219;53.678;9.856;2024-03-23T04:58:01;24.77;;;5.38;;
52838;SDS011;39219;53.678;9.856;2024-03-23T05:00:26;27.75;;;5.60;;
52838;SDS011;39219;53.678;9.856;2024-03-23T05:02:53;22.85;;;5.35;;
52838;SDS011;39219;53.678;9.856;2024-03-23T05:05:18;26.88;;;5.13;;
52838;SDS011;39219;53.678;9.856;2024-03-23T05:07:44;25.48;;;4.95;;
52838;SDS011;39219;53.678;9.856;2024-03-23T05:10:10;22.55;;;5.40;;
52838;SDS011;39219;53.678;9.856;2024-03-23T05:12:38;24.38;;;4.75;;
52838;SDS011;39219;53.678;9.856;2024-03-23T05:15:05;27.52;;;5.53;;
52838;SDS011;39219;53.678;9.856;2024-03-23T05:17:32;19.60;;;4.85;;
52838;SDS011;39219;53.678;9.856;2024-03-23T05:19:58;24.70;;;4.65;;
52838;SDS011;39219;53.678;9.856;2024-03-23T05:22:24;28.88;;;5.60;;
52838;SDS011;39219;53.678;9.856;2024-03-23T05:24:50;18.00;;;4.28;;
52838;SDS011;39219;53.678;9.856;2024-03-23T05:27:17;18.38;;;4.97;;
52838;SDS011;39219;53.678;9.856;2024-03-23T05:29:42;24.83;;;4.93;;
52838;SDS011;39219;53.678;9.856;2024-03-23T05:32:10;30.67;;;5.80;;
52838;SDS011;39219;53.678;9.856;2024-03-23T05:34:35;22.67;;;5.70;;
52838;SDS011;39219;53.678;9.856;2024-03-23T05:37:02;24.67;;;4.90;;
52838;SDS011;39219;53.678;9.856;2024-03-23T05:39:27;25.85;;;4.82;;
52838;SDS011;39219;53.678;9.856;2024-03-23T05:41:54;28.67;;;5.55;;
52838;SDS011;39219;53.678;9.856;2024-03-23T05:44:19;19.88;;;4.18;;
52838;SDS011;39219;53.678;9.856;2024-03-23T05:46:46;25.52;;;4.90;;
52838;SDS011;39219;53.678;9.856;2024-03-23T05:49:15;24.95;;;5.53;;
52838;SDS011;39219;53.678;9.856;2024-03-23T05:51:42;20.20;;;4.55;;
52838;SDS011;39219;53.678;9.856;2024-03-23T05:54:07;21.83;;;4.45;;
52838;SDS011;39219;53.678;9.856;2024-03-23T05:56:34;23.27;;;5.30;;
52838;SDS011;39219;53.678;9.856;2024-03-23T05:58:59;20.10;;;4.95;;
52838;SDS011;39219;53.678;9.856;2024-03-23T06:01:28;21.75;;;4.60;;
52838;SDS011;39219;53.678;9.856;2024-03-23T06:03:53;22.92;;;4.90;;
52838;SDS011;39219;53.678;9.856;2024-03-23T06:06:21;22.98;;;4.07;;
52838;SDS011;39219;53.678;9.856;2024-03-23T06:08:47;20.58;;;4.80;;
52838;SDS011;39219;53.678;9.856;2024-03-23T06:11:13;21.05;;;4.63;;
52838;SDS011;39219;53.678;9.856;2024-03-23T06:13:39;20.20;;;4.60;;
52838;SDS011;39219;53.678;9.856;2024-03-23T06:16:05;17.75;;;4.13;;
52838;SDS011;39219;53.678;9.856;2024-03-23T06:18:32;21.23;;;4.88;;
52838;SDS011;39219;53.678;9.856;2024-03-23T06:20:58;20.27;;;4.95;;
52838;SDS011;39219;53.678;9.856;2024-03-23T06:23:25;20.52;;;4.13;;
52838;SDS011;39219;53.678;9.856;2024-03-23T06:25:51;20.83;;;4.53;;
52838;SDS011;39219;53.678;9.856;2024-03-23T06:28:17;22.65;;;4.60;;
52838;SDS011;39219;53.678;9.856;2024-03-23T06:30:46;18.75;;;4.35;;
52838;SDS011;39219;53.678;9.856;2024-03-23T06:33:11;25.65;;;5.10;;
52838;SDS011;39219;53.678;9.856;2024-03-23T06:35:38;19.23;;;4.82;;
52838;SDS011;39219;53.678;9.856;2024-03-23T06:38:03;20.45;;;4.53;;
52838;SDS011;39219;53.678;9.856;2024-03-23T06:40:31;19.50;;;4.22;;
52838;SDS011;39219;53.678;9.856;2024-03-23T06:42:57;24.30;;;4.45;;
52838;SDS011;39219;53.678;9.856;2024-03-23T06:45:23;20.58;;;4.45;;
52838;SDS011;39219;53.678;9.856;2024-03-23T06:47:49;22.73;;;4.93;;
52838;SDS011;39219;53.678;9.856;2024-03-23T06:50:16;26.20;;;4.75;;
52838;SDS011;39219;53.678;9.856;2024-03-23T06:52:43;20.50;;;4.60;;
52838;SDS011;39219;53.678;9.856;2024-03-23T06:55:08;20.85;;;4.50;;
52838;SDS011;39219;53.678;9.856;2024-03-23T06:57:36;17.98;;;4.60;;
52838;SDS011;39219;53.678;9.856;2024-03-23T07:00:01;21.27;;;4.35;;
52838;SDS011;39219;53.678;9.856;2024-03-23T07:02:29;17.70;;;5.07;;
52838;SDS011;39219;53.678;9.856;2024-03-23T07:04:54;22.35;;;4.50;;
52838;SDS011;39219;53.678;9.856;2024-03-23T07:07:21;23.75;;;4.38;;
52838;SDS011;39219;53.678;9.856;2024-03-23T07:09:47;16.95;;;4.00;;
52838;SDS011;39219;53.678;9.856;2024-03-23T07:12:13;24.20;;;4.90;;
52838;SDS011;39219;53.678;9.856;2024-03-23T07:14:40;18.70;;;4.60;;
52838;SDS011;39219;53.678;9.856;2024-03-23T07:17:07;19.48;;;3.92;;
52838;SDS011;39219;53.678;9.856;2024-03-23T07:19:32;17.73;;;3.95;;
52838;SDS011;39219;53.678;9.856;2024-03-23T07:21:59;14.90;;;3.90;;
52838;SDS011;39219;53.678;9.856;2024-03-23T07:24:24;16.50;;;4.03;;
52838;SDS011;39219;53.678;9.856;2024-03-23T07:26:51;16.30;;;4.00;;
52838;SDS011;39219;53.678;9.856;2024-03-23T07:29:19;19.17;;;4.00;;
52838;SDS011;39219;53.678;9.856;2024-03-23T07:31:47;17.15;;;4.07;;
52838;SDS011;39219;53.678;9.856;2024-03-23T07:34:12;15.85;;;4.25;;
52838;SDS011;39219;53.678;9.856;2024-03-23T07:36:39;18.13;;;4.13;;
52838;SDS011;39219;53.678;9.856;2024-03-23T07:39:04;21.23;;;4.40;;
52838;SDS011;39219;53.678;9.856;2024-03-23T07:41:32;18.27;;;3.63;;
52838;SDS011;39219;53.678;9.856;2024-03-23T07:43:58;16.27;;;3.85;;
52838;SDS011;39219;53.678;9.856;2024-03-23T07:46:25;13.57;;;3.72;;
52838;SDS011;39219;53.678;9.856;2024-03-23T07:48:52;16.42;;;3.83;;
52838;SDS011;39219;53.678;9.856;2024-03-23T07:51:20;17.27;;;3.70;;
52838;SDS011;39219;53.678;9.856;2024-03-23T07:53:46;16.65;;;3.63;;
52838;SDS011;39219;53.678;9.856;2024-03-23T07:56:13;15.27;;;3.92;;
52838;SDS011;39219;53.678;9.856;2024-03-23T07:58:40;15.85;;;3.65;;
52838;SDS011;39219;53.678;9.856;2024-03-23T08:01:07;19.10;;;4.43;;
52838;SDS011;39219;53.678;9.856;2024-03-23T08:03:34;18.30;;;3.67;;
52838;SDS011;39219;53.678;9.856;2024-03-23T08:06:09;15.63;;;3.88;;
52838;SDS011;39219;53.678;9.856;2024-03-23T08:08:35;14.90;;;3.47;;
52838;SDS011;39219;53.678;9.856;2024-03-23T08:11:01;19.65;;;3.63;;
52838;SDS011;39219;53.678;9.856;2024-03-23T08:13:28;16.17;;;3.67;;
52838;SDS011;39219;53.678;9.856;2024-03-23T08:15:56;15.35;;;3.67;;
52838;SDS011;39219;53.678;9.856;2024-03-23T08:18:21;11.90;;;3.30;;
52838;SDS011;39219;53.678;9.856;2024-03-23T08:20:54;16.20;;;4.07;;
52838;SDS011;39219;53.678;9.856;2024-03-23T08:23:22;13.40;;;4.05;;
52838;SDS011;39219;53.678;9.856;2024-03-23T08:25:48;13.40;;;3.60;;
52838;SDS011;39219;53.678;9.856;2024-03-23T08:28:14;11.88;;;3.40;;
52838;SDS011;39219;53.678;9.856;2024-03-23T08:30:40;14.38;;;3.40;;
52838;SDS011;39219;53.678;9.856;2024-03-23T08:33:06;19.33;;;3.85;;
52838;SDS011;39219;53.678;9.856;2024-03-23T08:35:32;11.20;;;3.22;;
52838;SDS011;39219;53.678;9.856;2024-03-23T08:37:59;13.20;;;3.10;;
52838;SDS011;39219;53.678;9.856;2024-03-23T08:40:27;13.45;;;3.38;;
52838;SDS011;39219;53.678;9.856;2024-03-23T08:42:53;13.38;;;3.38;;
52838;SDS011;39219;53.678;9.856;2024-03-23T08:45:19;11.20;;;3.63;;
52838;SDS011;39219;53.678;9.856;2024-03-23T08:47:45;14.07;;;3.33;;
52838;SDS011;39219;53.678;9.856;2024-03-23T08:50:11;16.48;;;3.80;;
52838;SDS011;39219;53.678;9.856;2024-03-23T08:52:36;11.55;;;3.03;;
52838;SDS011;39219;53.678;9.856;2024-03-23T08:55:03;11.25;;;3.15;;
52838;SDS011;39219;53.678;9.856;2024-03-23T08:57:30;15.65;;;4.30;;
52838;SDS011;39219;53.678;9.856;2024-03-23T08:59:57;14.40;;;3.50;;
52838;SDS011;39219;53.678;9.856;2024-03-23T09:02:23;18.02;;;4.00;;
52838;SDS011;39219;53.678;9.856;2024-03-23T09:04:49;15.40;;;3.97;;
52838;SDS011;39219;53.678;9.856;2024-03-23T09:07:15;12.82;;;3.58;;
52838;SDS011;39219;53.678;9.856;2024-03-23T09:09:42;13.02;;;3.33;;
52838;SDS011;39219;53.678;9.856;2024-03-23T09:12:07;10.70;;;3.22;;
52838;SDS011;39219;53.678;9.856;2024-03-23T09:14:35;10.70;;;3.45;;
52838;SDS011;39219;53.678;9.856;2024-03-23T09:17:00;14.88;;;3.50;;
52838;SDS011;39219;53.678;9.856;2024-03-23T09:19:28;12.40;;;3.70;;
52838;SDS011;39219;53.678;9.856;2024-03-23T09:21:53;12.60;;;3.33;;
52838;SDS011;39219;53.678;9.856;2024-03-23T09:24:20;14.82;;;4.03;;
52838;SDS011;39219;53.678;9.856;2024-03-23T09:26:46;14.05;;;3.25;;
52838;SDS011;39219;53.678;9.856;2024-03-23T09:29:12;13.82;;;3.25;;
52838;SDS011;39219;53.678;9.856;2024-03-23T09:31:39;9.57;;;3.22;;
52838;SDS011;39219;53.678;9.856;2024-03-23T09:34:06;10.57;;;3.38;;
52838;SDS011;39219;53.678;9.856;2024-03-23T09:36:31;12.73;;;3.13;;
52838;SDS011;39219;53.678;9.856;2024-03-23T09:38:58;8.85;;;2.65;;
52838;SDS011;39219;53.678;9.856;2024-03-23T09:41:23;9.10;;;3.17;;
52838;SDS011;39219;53.678;9.856;2024-03-23T09:43:52;13.40;;;3.25;;
52838;SDS011;39219;53.678;9.856;2024-03-23T09:46:17;11.32;;;2.78;;
52838;SDS011;39219;53.678;9.856;2024-03-23T09:48:45;13.32;;;3.13;;
52838;SDS011;39219;53.678;9.856;2024-03-23T09:51:12;13.48;;;3.28;;
52838;SDS011;39219;53.678;9.856;2024-03-23T09:53:38;9.38;;;2.78;;
52838;SDS011;39219;53.678;9.856;2024-03-23T09:56:04;13.13;;;3.13;;
52838;SDS011;39219;53.678;9.856;2024-03-23T09:58:30;10.88;;;3.22;;
52838;SDS011;39219;53.678;9.856;2024-03-23T10:00:57;12.07;;;3.20;;
52838;SDS011;39219;53.678;9.856;2024-03-23T10:03:23;14.43;;;3.13;;
52838;SDS011;39219;53.678;9.856;2024-03-23T10:05:59;14.05;;;3.42;;
52838;SDS011;39219;53.678;9.856;2024-03-23T10:08:27;8.43;;;2.72;;
52838;SDS011;39219;53.678;9.856;2024-03-23T10:10:54;13.18;;;2.92;;
52838;SDS011;39219;53.678;9.856;2024-03-23T10:13:23;11.18;;;2.83;;
52838;SDS011;39219;53.678;9.856;2024-03-23T10:15:54;11.48;;;3.00;;
52838;SDS011;39219;53.678;9.856;2024-03-23T10:18:22;9.30;;;2.85;;
52838;SDS011;39219;53.678;9.856;2024-03-23T10:20:50;12.52;;;2.92;;
52838;SDS011;39219;53.678;9.856;2024-03-23T10:23:18;9.48;;;2.17;;
52838;SDS011;39219;53.678;9.856;2024-03-23T10:25:44;13.35;;;2.60;;
52838;SDS011;39219;53.678;9.856;2024-03-23T10:28:11;10.05;;;2.72;;
52838;SDS011;39219;53.678;9.856;2024-03-23T10:30:37;9.85;;;2.53;;
52838;SDS011;39219;53.678;9.856;2024-03-23T10:33:07;11.05;;;2.35;;
52838;SDS011;39219;53.678;9.856;2024-03-23T10:35:33;10.38;;;2.65;;
52838;SDS011;39219;53.678;9.856;2024-03-23T10:38:00;9.52;;;2.03;;
52838;SDS011;39219;53.678;9.856;2024-03-23T10:40:27;8.50;;;2.15;;
52838;SDS011;39219;53.678;9.856;2024-03-23T10:42:55;9.48;;;2.10;;
52838;SDS011;39219;53.678;9.856;2024-03-23T10:45:23;10.10;;;2.38;;
52838;SDS011;39219;53.678;9.856;2024-03-23T10:47:50;11.55;;;2.25;;
52838;SDS011;39219;53.678;9.856;2024-03-23T10:50:17;9.38;;;2.30;;
52838;SDS011;39219;53.678;9.856;2024-03-23T10:52:45;8.02;;;1.92;;
52838;SDS011;39219;53.678;9.856;2024-03-23T10:55:12;7.72;;;2.00;;
52838;SDS011;39219;53.678;9.856;2024-03-23T10:57:44;6.68;;;2.05;;
52838;SDS011;39219;53.678;9.856;2024-03-23T11:00:13;8.90;;;1.92;;
52838;SDS011;39219;53.678;9.856;2024-03-23T11:02:41;11.30;;;3.03;;
52838;SDS011;39219;53.678;9.856;2024-03-23T11:07:54;6.85;;;1.95;;
52838;SDS011;39219;53.678;9.856;2024-03-23T11:10:26;6.38;;;1.55;;
52838;SDS011;39219;53.678;9.856;2024-03-23T11:12:56;7.38;;;2.30;;
52838;SDS011;39219;53.678;9.856;2024-03-23T11:15:22;9.48;;;2.58;;
52838;SDS011;39219;53.678;9.856;2024-03-23T11:20:34;6.90;;;2.03;;
52838;SDS011;39219;53.678;9.856;2024-03-23T11:23:01;8.38;;;1.95;;
52838;SDS011;39219;53.678;9.856;2024-03-23T11:25:27;8.77;;;2.17;;
52838;SDS011;39219;53.678;9.856;2024-03-23T11:27:54;7.10;;;2.10;;
52838;SDS011;39219;53.678;9.856;2024-03-23T11:30:22;7.57;;;1.90;;
52838;SDS011;39219;53.678;9.856;2024-03-23T11:32:50;6.93;;;2.20;;
52838;SDS011;39219;53.678;9.856;2024-03-23T11:35:29;6.38;;;2.00;;
52838;SDS011;39219;53.678;9.856;2024-03-23T11:38:01;7.70;;;1.95;;
52838;SDS011;39219;53.678;9.856;2024-03-23T11:40:30;4.03;;;1.42;;
52838;SDS011;39219;53.678;9.856;2024-03-23T11:42:59;5.93;;;1.70;;
52838;SDS011;39219;53.678;9.856;2024-03-23T11:45:25;6.38;;;1.50;;
52838;SDS011;39219;53.678;9.856;2024-03-23T11:48:01;5.07;;;1.13;;
52838;SDS011;39219;53.678;9.856;2024-03-23T11:50:28;4.57;;;1.02;;
52838;SDS011;39219;53.678;9.856;2024-03-23T11:53:05;7.45;;;1.05;;
52838;SDS011;39219;53.678;9.856;2024-03-23T11:55:38;5.68;;;1.25;;
52838;SDS011;39219;53.678;9.856;2024-03-23T11:58:07;3.03;;;1.00;;
52838;SDS011;39219;53.678;9.856;2024-03-23T12:00:33;1.60;;;1.00;;
52838;SDS011;39219;53.678;9.856;2024-03-23T12:03:00;4.85;;;1.30;;
52838;SDS011;39219;53.678;9.856;2024-03-23T12:05:26;2.72;;;1.17;;
52838;SDS011;39219;53.678;9.856;2024-03-23T12:07:53;3.75;;;1.70;;
52838;SDS011;39219;53.678;9.856;2024-03-23T12:10:19;3.35;;;1.10;;
52838;SDS011;39219;53.678;9.856;2024-03-23T12:12:45;4.93;;;1.42;;
52838;SDS011;39219;53.678;9.856;2024-03-23T12:15:12;4.80;;;1.45;;
52838;SDS011;39219;53.678;9.856;2024-03-23T12:17:41;3.28;;;1.30;;
52838;SDS011;39219;53.678;9.856;2024-03-23T12:20:06;3.72;;;1.20;;
52838;SDS011;39219;53.678;9.856;2024-03-23T12:22:33;5.20;;;1.10;;
52838;SDS011;39219;53.678;9.856;2024-03-23T12:25:00;4.05;;;1.33;;
52838;SDS011;39219;53.678;9.856;2024-03-23T12:27:27;3.65;;;1.35;;
52838;SDS011;39219;53.678;9.856;2024-03-23T12:29:52;4.07;;;1.40;;
52838;SDS011;39219;53.678;9.856;2024-03-23T12:32:20;2.65;;;1.27;;
52838;SDS011;39219;53.678;9.856;2024-03-23T12:34:45;4.45;;;1.27;;
52838;SDS011;39219;53.678;9.856;2024-03-23T12:37:13;3.72;;;0.90;;
52838;SDS011;39219;53.678;9.856;2024-03-23T12:39:38;3.28;;;0.93;;
52838;SDS011;39219;53.678;9.856;2024-03-23T12:42:05;3.90;;;0.70;;
52838;SDS011;39219;53.678;9.856;2024-03-23T12:44:31;1.88;;;0.57;;
52838;SDS011;39219;53.678;9.856;2024-03-23T12:46:57;1.75;;;0.65;;
52838;SDS011;39219;53.678;9.856;2024-03-23T12:49:24;2.65;;;0.90;;
52838;SDS011;39219;53.678;9.856;2024-03-23T12:51:53;2.42;;;0.98;;
52838;SDS011;39219;53.678;9.856;2024-03-23T12:54:19;1.65;;;0.98;;
52838;SDS011;39219;53.678;9.856;2024-03-23T12:56:46;2.38;;;0.85;;
52838;SDS011;39219;53.678;9.856;2024-03-23T12:59:11;1.70;;;0.60;;
52838;SDS011;39219;53.678;9.856;2024-03-23T13:01:38;2.38;;;0.88;;
52838;SDS011;39219;53.678;9.856;2024-03-23T13:04:04;2.80;;;0.80;;
52838;SDS011;39219;53.678;9.856;2024-03-23T13:06:32;3.10;;;0.70;;
52838;SDS011;39219;53.678;9.856;2024-03-23T13:08:59;3.10;;;0.70;;
52838;SDS011;39219;53.678;9.856;2024-03-23T13:11:26;2.60;;;0.80;;
52838;SDS011;39219;53.678;9.856;2024-03-23T13:13:51;2.58;;;1.33;;
52838;SDS011;39219;53.678;9.856;2024-03-23T13:16:18;3.25;;;1.40;;
52838;SDS011;39219;53.678;9.856;2024-03-23T13:18:43;5.97;;;1.42;;
52838;SDS011;39219;53.678;9.856;2024-03-23T13:21:10;3.83;;;1.58;;
52838;SDS011;39219;53.678;9.856;2024-03-23T13:23:37;3.17;;;1.50;;
52838;SDS011;39219;53.678;9.856;2024-03-23T13:26:06;1.95;;;0.95;;
52838;SDS011;39219;53.678;9.856;2024-03-23T13:28:32;5.90;;;2.88;;
52838;SDS011;39219;53.678;9.856;2024-03-23T13:31:00;3.05;;;1.40;;
52838;SDS011;39219;53.678;9.856;2024-03-23T13:33:28;5.55;;;1.40;;
52838;SDS011;39219;53.678;9.856;2024-03-23T13:35:57;5.00;;;1.20;;
52838;SDS011;39219;53.678;9.856;2024-03-23T13:38:23;2.67;;;0.90;;
52838;SDS011;39219;53.678;9.856;2024-03-23T13:40:55;3.28;;;0.80;;
52838;SDS011;39219;53.678;9.856;2024-03-23T13:43:21;2.10;;;0.80;;
52838;SDS011;39219;53.678;9.856;2024-03-23T13:45:48;2.50;;;0.90;;
52838;SDS011;39219;53.678;9.856;2024-03-23T13:48:16;2.83;;;0.90;;
52838;SDS011;39219;53.678;9.856;2024-03-23T13:50:44;2.63;;;0.98;;
52838;SDS011;39219;53.678;9.856;2024-03-23T13:53:09;4.93;;;1.10;;
52838;SDS011;39219;53.678;9.856;2024-03-23T13:55:36;5.10;;;1.45;;
52838;SDS011;39219;53.678;9.856;2024-03-23T13:58:03;3.67;;;1.13;;
52838;SDS011;39219;53.678;9.856;2024-03-23T14:00:30;6.47;;;1.70;;
52838;SDS011;39219;53.678;9.856;2024-03-23T14:02:57;8.20;;;1.90;;
52838;SDS011;39219;53.678;9.856;2024-03-23T14:05:23;4.60;;;1.67;;
52838;SDS011;39219;53.678;9.856;2024-03-23T14:07:50;6.18;;;1.85;;
52838;SDS011;39219;53.678;9.856;2024-03-23T14:10:15;9.88;;;2.17;;
52838;SDS011;39219;53.678;9.856;2024-03-23T14:12:42;8.55;;;1.80;;
52838;SDS011;39219;53.678;9.856;2024-03-23T14:15:09;6.38;;;1.90;;
52838;SDS011;39219;53.678;9.856;2024-03-23T14:17:35;7.65;;;1.80;;
52838;SDS011;39219;53.678;9.856;2024-03-23T14:20:01;6.32;;;1.92;;
52838;SDS011;39219;53.678;9.856;2024-03-23T14:22:30;5.85;;;2.25;;
52838;SDS011;39219;53.678;9.856;2024-03-23T14:24:55;8.95;;;2.13;;
52838;SDS011;39219;53.678;9.856;2024-03-23T14:27:22;6.45;;;2.10;;
52838;SDS011;39219;53.678;9.856;2024-03-23T14:29:47;6.03;;;2.00;;
52838;SDS011;39219;53.678;9.856;2024-03-23T14:32:15;5.53;;;2.00;;
52838;SDS011;39219;53.678;9.856;2024-03-23T14:34:42;4.93;;;1.77;;
52838;SDS011;39219;53.678;9.856;2024-03-23T14:37:07;6.05;;;2.03;;
52838;SDS011;39219;53.678;9.856;2024-03-23T14:39:34;6.32;;;1.95;;
52838;SDS011;39219;53.678;9.856;2024-03-23T14:41:59;5.18;;;1.75;;
52838;SDS011;39219;53.678;9.856;2024-03-23T14:44:26;4.35;;;1.88;;
52838;SDS011;39219;53.678;9.856;2024-03-23T14:46:52;4.95;;;2.00;;
52838;SDS011;39219;53.678;9.856;2024-03-23T14:49:21;4.93;;;2.00;;
52838;SDS011;39219;53.678;9.856;2024-03-23T14:51:47;7.63;;;2.25;;
52838;SDS011;39219;53.678;9.856;2024-03-23T14:54:13;5.25;;;2.00;;
52838;SDS011;39219;53.678;9.856;2024-03-23T14:56:39;5.80;;;1.90;;
52838;SDS011;39219;53.678;9.856;2024-03-23T14:59:05;3.67;;;1.65;;
52838;SDS011;39219;53.678;9.856;2024-03-23T15:01:32;3.53;;;1.20;;
52838;SDS011;39219;53.678;9.856;2024-03-23T15:03:58;4.78;;;1.42;;
52838;SDS011;39219;53.678;9.856;2024-03-23T15:06:26;2.40;;;0.93;;
52838;SDS011;39219;53.678;9.856;2024-03-23T15:08:52;1.85;;;0.75;;
52838;SDS011;39219;53.678;9.856;2024-03-23T15:11:19;3.75;;;1.10;;
52838;SDS011;39219;53.678;9.856;2024-03-23T15:13:46;4.07;;;1.17;;
52838;SDS011;39219;53.678;9.856;2024-03-23T15:16:16;4.15;;;1.17;;
52838;SDS011;39219;53.678;9.856;2024-03-23T15:18:45;6.13;;;1.75;;
52838;SDS011;39219;53.678;9.856;2024-03-23T15:21:10;3.53;;;1.20;;
52838;SDS011;39219;53.678;9.856;2024-03-23T15:23:38;4.32;;;1.30;;
52838;SDS011;39219;53.678;9.856;2024-03-23T15:26:04;4.28;;;1.23;;
52838;SDS011;39219;53.678;9.856;2024-03-23T15:28:31;3.53;;;1.13;;
52838;SDS011;39219;53.678;9.856;2024-03-23T15:31:03;5.03;;;1.73;;
52838;SDS011;39219;53.678;9.856;2024-03-23T15:33:29;3.15;;;1.20;;
52838;SDS011;39219;53.678;9.856;2024-03-23T15:35:58;7.32;;;1.85;;